Time;durP1;ratioP1;P1;durP2;ratioP2;P2;SDS_P1;SDS_P2;PMS_P1;PMS_P2;Temp;Humidity;BMP_temperature;BMP_pressure;BME280_temperature;BME280_humidity;BME280_pressure;Samples;Min_cycle;Max_cycle;Signal;HPM_P1;HPM_P2
2022/04/25 00:00:16;;;;;;;11.80;7.38;;;;;;;;;;5024655;28;20049;-80
2022/04/25 00:02:42;;;;;;;16.73;7.63;;;;;;;;;;5044314;28;20041;-83
2022/04/25 00:05:08;;;;;;;13.65;7.82;;;;;;;;;;5022283;28;21625;-79
2022/04/25 00:07:34;;;;;;;14.73;8.18;;;;;;;;;;5024540;28;20050;-80
2022/04/25 00:10:00;;;;;;;11.88;7.63;;;;;;;;;;5043523;28;20033;-81
2022/04/25 00:12:26;;;;;;;14.27;8.57;;;;;;;;;;5048647;28;20040;-84
2022/04/25 00:14:52;;;;;;;12.98;7.60;;;;;;;;;;5058020;28;20540;-81
2022/04/25 00:17:18;;;;;;;13.55;8.55;;;;;;;;;;5045093;28;20116;-83
2022/04/25 00:19:44;;;;;;;13.25;7.88;;;;;;;;;;5028262;28;20145;-81
2022/04/25 00:22:10;;;;;;;13.05;7.80;;;;;;;;;;5043256;28;20040;-81
2022/04/25 00:24:36;;;;;;;12.85;8.48;;;;;;;;;;5026027;28;20072;-80
2022/04/25 00:27:02;;;;;;;14.45;8.55;;;;;;;;;;5042968;28;20408;-80
2022/04/25 00:29:28;;;;;;;17.38;8.43;;;;;;;;;;5041460;28;20164;-80
2022/04/25 00:31:54;;;;;;;15.60;8.68;;;;;;;;;;5024121;28;20982;-79
2022/04/25 00:34:21;;;;;;;16.08;8.82;;;;;;;;;;5021237;28;20048;-79
2022/04/25 00:36:47;;;;;;;17.50;9.13;;;;;;;;;;5022672;28;20121;-80
2022/04/25 00:39:13;;;;;;;20.23;9.23;;;;;;;;;;5042998;28;20144;-79
2022/04/25 00:41:40;;;;;;;15.30;8.90;;;;;;;;;;5025508;28;20033;-81
2022/04/25 00:44:06;;;;;;;16.25;9.00;;;;;;;;;;5041188;28;20171;-80
2022/04/25 00:46:32;;;;;;;18.17;9.35;;;;;;;;;;4990725;28;20049;-81
2022/04/25 00:48:58;;;;;;;22.88;9.95;;;;;;;;;;5025121;28;20143;-80
2022/04/25 00:51:26;;;;;;;16.15;9.50;;;;;;;;;;5023029;28;20179;-81
2022/04/25 00:53:53;;;;;;;17.42;9.30;;;;;;;;;;5023502;28;20796;-79
2022/04/25 00:56:19;;;;;;;14.68;9.48;;;;;;;;;;5042763;28;20455;-83
2022/04/25 00:58:45;;;;;;;22.33;9.60;;;;;;;;;;5044046;28;20060;-79
2022/04/25 01:01:13;;;;;;;16.30;9.25;;;;;;;;;;5038212;28;20048;-80
2022/04/25 01:03:39;;;;;;;14.27;9.43;;;;;;;;;;5022919;28;20045;-80
2022/04/25 01:06:05;;;;;;;17.92;9.10;;;;;;;;;;5024280;28;20041;-79
2022/04/25 01:08:37;;;;;;;18.20;9.82;;;;;;;;;;5021690;28;20122;-80
2022/04/25 01:11:04;;;;;;;17.23;9.30;;;;;;;;;;5026714;28;20040;-79
2022/04/25 01:13:30;;;;;;;13.00;9.00;;;;;;;;;;5041651;28;20527;-79
2022/04/25 01:15:56;;;;;;;13.95;8.70;;;;;;;;;;5025432;28;20749;-79
2022/04/25 01:18:22;;;;;;;14.73;8.75;;;;;;;;;;5024115;28;20094;-79
2022/04/25 01:20:49;;;;;;;18.75;9.10;;;;;;;;;;5010547;28;20045;-78
2022/04/25 01:28:44;;;;;;;12.57;8.05;;;;;;;;;;5040958;28;19990;-79
2022/04/25 01:31:10;;;;;;;17.75;8.60;;;;;;;;;;5044178;28;20048;-79
2022/04/25 01:33:36;;;;;;;15.10;8.52;;;;;;;;;;5041875;28;20128;-80
2022/04/25 01:36:03;;;;;;;17.50;9.20;;;;;;;;;;5039870;28;20083;-79
2022/04/25 01:38:29;;;;;;;12.57;8.07;;;;;;;;;;5040442;28;20037;-80
2022/04/25 01:40:57;;;;;;;14.45;8.27;;;;;;;;;;5039937;28;20044;-79
2022/04/25 01:43:23;;;;;;;16.83;8.65;;;;;;;;;;5042368;28;20048;-80
2022/04/25 01:45:49;;;;;;;19.52;9.00;;;;;;;;;;5028358;28;20555;-81
2022/04/25 01:48:15;;;;;;;16.70;8.50;;;;;;;;;;5042183;28;20119;-83
2022/04/25 01:50:42;;;;;;;13.05;8.52;;;;;;;;;;5026236;28;20044;-81
2022/04/25 01:53:08;;;;;;;14.73;8.18;;;;;;;;;;5042162;28;20497;-79
2022/04/25 01:55:34;;;;;;;15.38;8.68;;;;;;;;;;5042344;28;20567;-81
2022/04/25 01:58:00;;;;;;;15.68;8.38;;;;;;;;;;5040305;28;20040;-79
2022/04/25 02:00:26;;;;;;;12.95;8.05;;;;;;;;;;5023344;28;20291;-79
2022/04/25 02:02:52;;;;;;;14.38;7.05;;;;;;;;;;5027935;28;20079;-83
2022/04/25 02:05:18;;;;;;;10.90;6.75;;;;;;;;;;5008910;28;20127;-84
2022/04/25 02:07:44;;;;;;;15.57;6.05;;;;;;;;;;5027726;28;20033;-79
2022/04/25 02:10:10;;;;;;;14.30;6.00;;;;;;;;;;5011143;28;20712;-82
2022/04/25 02:12:36;;;;;;;11.77;6.25;;;;;;;;;;5045181;28;20029;-79
2022/04/25 02:15:03;;;;;;;15.85;7.57;;;;;;;;;;5046465;28;20056;-82
2022/04/25 02:17:29;;;;;;;11.85;6.70;;;;;;;;;;5047189;28;20041;-84
2022/04/25 02:19:55;;;;;;;13.55;7.10;;;;;;;;;;5044433;28;20029;-83
2022/04/25 02:22:22;;;;;;;13.50;7.68;;;;;;;;;;5025200;28;20531;-86
2022/04/25 02:24:48;;;;;;;13.68;8.35;;;;;;;;;;5045763;28;20068;-85
2022/04/25 02:27:14;;;;;;;13.43;8.35;;;;;;;;;;5040556;28;20045;-79
2022/04/25 02:29:40;;;;;;;9.88;7.05;;;;;;;;;;5044906;28;20052;-83
2022/04/25 02:32:07;;;;;;;13.93;7.72;;;;;;;;;;5042736;28;20052;-81
2022/04/25 02:34:33;;;;;;;12.77;7.50;;;;;;;;;;5026791;28;20048;-85
2022/04/25 02:36:59;;;;;;;12.77;7.45;;;;;;;;;;5040774;28;20128;-84
2022/04/25 02:39:25;;;;;;;13.90;8.32;;;;;;;;;;5025452;28;20081;-83
2022/04/25 02:41:51;;;;;;;16.58;7.53;;;;;;;;;;5042618;28;20083;-83
2022/04/25 02:44:20;;;;;;;13.90;7.38;;;;;;;;;;5026510;28;20057;-83
2022/04/25 02:46:46;;;;;;;13.63;7.18;;;;;;;;;;5056757;28;20036;-84
2022/04/25 02:49:12;;;;;;;13.10;7.90;;;;;;;;;;5040211;28;20105;-84
2022/04/25 02:51:39;;;;;;;12.25;8.02;;;;;;;;;;5051042;28;20045;-80
2022/04/25 02:54:05;;;;;;;13.25;8.13;;;;;;;;;;5042739;28;20511;-84
2022/04/25 02:56:32;;;;;;;16.95;8.40;;;;;;;;;;5026667;28;20041;-85
2022/04/25 02:58:58;;;;;;;12.00;8.35;;;;;;;;;;5022324;28;20050;-86
2022/04/25 03:01:24;;;;;;;16.35;8.43;;;;;;;;;;5024784;28;20553;-83
2022/04/25 03:03:50;;;;;;;13.70;8.75;;;;;;;;;;5026672;28;20055;-84
2022/04/25 03:06:16;;;;;;;15.88;8.05;;;;;;;;;;5023857;28;20859;-80
2022/04/25 03:08:42;;;;;;;16.70;7.95;;;;;;;;;;5044983;28;20059;-82
2022/04/25 03:11:08;;;;;;;16.60;7.85;;;;;;;;;;5025243;28;20126;-82
2022/04/25 03:13:35;;;;;;;12.35;8.05;;;;;;;;;;5025182;28;20048;-81
2022/04/25 03:16:04;;;;;;;19.52;9.55;;;;;;;;;;5022404;28;20140;-84
2022/04/25 03:18:30;;;;;;;16.92;9.48;;;;;;;;;;5045792;28;20041;-84
2022/04/25 03:20:57;;;;;;;13.90;8.52;;;;;;;;;;5044533;28;20489;-85
2022/04/25 03:23:23;;;;;;;18.10;8.73;;;;;;;;;;5042644;28;20102;-83
2022/04/25 03:25:49;;;;;;;13.95;8.93;;;;;;;;;;5026233;28;20039;-85
2022/04/25 03:28:16;;;;;;;18.38;9.35;;;;;;;;;;5023218;28;20079;-81
2022/04/25 03:30:42;;;;;;;16.63;8.95;;;;;;;;;;5026905;28;20041;-85
2022/04/25 03:33:11;;;;;;;15.13;8.75;;;;;;;;;;5025111;28;20516;-84
2022/04/25 03:35:37;;;;;;;18.25;9.73;;;;;;;;;;5043293;28;20095;-83
2022/04/25 03:38:05;;;;;;;14.63;9.93;;;;;;;;;;5043360;28;20049;-85
2022/04/25 03:40:31;;;;;;;14.70;9.68;;;;;;;;;;5011302;28;20552;-81
2022/04/25 03:42:57;;;;;;;14.63;9.75;;;;;;;;;;5044837;28;20480;-84
2022/04/25 03:45:23;;;;;;;18.60;9.98;;;;;;;;;;5041532;28;20595;-81
2022/04/25 03:47:49;;;;;;;18.17;8.85;;;;;;;;;;5044905;28;20067;-80
2022/04/25 03:50:16;;;;;;;15.88;9.55;;;;;;;;;;5041552;28;20045;-81
2022/04/25 03:52:43;;;;;;;11.82;8.90;;;;;;;;;;5044426;28;20036;-83
2022/04/25 03:57:55;;;;;;;14.57;9.18;;;;;;;;;;5042557;28;20060;-79
2022/04/25 04:00:22;;;;;;;15.50;9.48;;;;;;;;;;5044515;28;20045;-79
2022/04/25 04:02:48;;;;;;;15.00;9.18;;;;;;;;;;5041901;28;20073;-84
2022/04/25 04:05:14;;;;;;;13.98;9.00;;;;;;;;;;5045327;28;20944;-85
2022/04/25 04:07:41;;;;;;;15.13;8.88;;;;;;;;;;5025422;28;20044;-83
2022/04/25 04:10:07;;;;;;;13.98;8.93;;;;;;;;;;5024248;28;20467;-84
2022/04/25 04:12:36;;;;;;;15.93;8.95;;;;;;;;;;5041204;28;20131;-84
2022/04/25 04:15:06;;;;;;;13.90;9.27;;;;;;;;;;5028206;28;20075;-81
2022/04/25 04:17:32;;;;;;;14.57;9.13;;;;;;;;;;5043266;28;20045;-83
2022/04/25 04:19:58;;;;;;;12.93;9.30;;;;;;;;;;5024099;28;20036;-83
2022/04/25 04:22:29;;;;;;;15.75;8.30;;;;;;;;;;5043399;28;20052;-82
2022/04/25 04:24:59;;;;;;;18.23;8.77;;;;;;;;;;5042419;28;20083;-82
2022/04/25 04:27:25;;;;;;;14.10;8.73;;;;;;;;;;5041989;28;20096;-83
2022/04/25 04:29:51;;;;;;;15.82;9.25;;;;;;;;;;5040285;28;20051;-84
2022/04/25 04:32:18;;;;;;;14.38;9.77;;;;;;;;;;5040829;28;20047;-84
2022/04/25 04:34:44;;;;;;;17.95;10.40;;;;;;;;;;5020825;28;20037;-83
2022/04/25 04:37:10;;;;;;;13.95;9.43;;;;;;;;;;5041085;28;20060;-83
2022/04/25 04:39:36;;;;;;;15.80;9.85;;;;;;;;;;5023356;28;20080;-85
2022/04/25 04:42:02;;;;;;;17.40;9.73;;;;;;;;;;5024540;28;20104;-83
2022/04/25 04:44:28;;;;;;;18.00;9.77;;;;;;;;;;5042007;28;20060;-81
2022/04/25 04:46:54;;;;;;;12.57;9.23;;;;;;;;;;5023087;28;20074;-83
2022/04/25 04:49:20;;;;;;;15.02;9.45;;;;;;;;;;5023812;28;20045;-83
2022/04/25 04:51:46;;;;;;;12.02;9.10;;;;;;;;;;5042604;28;20059;-84
2022/04/25 04:54:12;;;;;;;14.27;9.05;;;;;;;;;;5044063;28;20052;-81
2022/04/25 04:56:38;;;;;;;18.08;9.40;;;;;;;;;;5008717;28;20404;-84
2022/04/25 04:59:05;;;;;;;15.23;9.40;;;;;;;;;;5040904;28;20526;-84
2022/04/25 05:01:32;;;;;;;14.02;8.93;;;;;;;;;;5045911;28;20048;-84
2022/04/25 05:03:58;;;;;;;23.20;9.73;;;;;;;;;;5040697;28;20049;-83
2022/04/25 05:06:27;;;;;;;17.35;9.95;;;;;;;;;;5046525;28;20515;-83
2022/04/25 05:08:54;;;;;;;16.10;10.25;;;;;;;;;;5022361;28;20037;-83
2022/04/25 05:11:20;;;;;;;21.48;10.15;;;;;;;;;;5042926;28;20048;-81
2022/04/25 05:13:46;;;;;;;16.60;10.13;;;;;;;;;;5041591;28;20123;-85
2022/04/25 05:16:12;;;;;;;16.27;10.23;;;;;;;;;;5044104;28;20837;-81
2022/04/25 05:18:38;;;;;;;16.80;9.45;;;;;;;;;;5053836;28;20037;-84
2022/04/25 05:21:05;;;;;;;20.17;9.63;;;;;;;;;;5049560;28;20408;-83
2022/04/25 05:23:31;;;;;;;17.05;10.20;;;;;;;;;;5045418;28;20049;-82
2022/04/25 05:25:58;;;;;;;16.17;9.82;;;;;;;;;;5046470;28;20107;-83
2022/04/25 05:28:25;;;;;;;15.43;9.82;;;;;;;;;;5045117;28;20037;-84
2022/04/25 05:30:52;;;;;;;14.88;9.30;;;;;;;;;;5045086;28;20075;-81
2022/04/25 05:33:19;;;;;;;14.05;9.45;;;;;;;;;;5026090;28;20152;-80
2022/04/25 05:35:45;;;;;;;14.82;9.20;;;;;;;;;;5039887;28;20154;-85
2022/04/25 05:38:12;;;;;;;14.55;9.75;;;;;;;;;;5038574;28;20431;-82
2022/04/25 05:40:39;;;;;;;16.40;9.85;;;;;;;;;;5043032;28;20397;-84
2022/04/25 05:43:06;;;;;;;15.32;8.93;;;;;;;;;;5026703;28;20570;-79
2022/04/25 05:45:32;;;;;;;16.65;9.88;;;;;;;;;;5046998;28;20041;-80
2022/04/25 05:47:59;;;;;;;17.83;8.90;;;;;;;;;;5043471;28;20457;-80
2022/04/25 05:53:14;;;;;;;14.02;9.27;;;;;;;;;;5046431;28;20060;-82
2022/04/25 05:55:41;;;;;;;17.30;8.40;;;;;;;;;;5029506;28;20509;-83
2022/04/25 05:58:08;;;;;;;16.80;8.85;;;;;;;;;;5044299;28;20107;-81
2022/04/25 06:00:34;;;;;;;14.55;8.48;;;;;;;;;;5031822;28;20043;-80
2022/04/25 06:03:01;;;;;;;17.75;9.02;;;;;;;;;;5046007;28;20048;-80
2022/04/25 06:05:28;;;;;;;15.77;7.95;;;;;;;;;;5043655;28;20408;-84
2022/04/25 06:07:57;;;;;;;15.07;7.70;;;;;;;;;;5044727;28;20038;-82
2022/04/25 06:10:26;;;;;;;17.92;7.18;;;;;;;;;;5043191;28;20040;-82
2022/04/25 06:12:53;;;;;;;11.13;6.43;;;;;;;;;;5045063;28;20131;-82
2022/04/25 06:15:26;;;;;;;12.07;6.40;;;;;;;;;;5047671;28;20057;-83
2022/04/25 06:17:54;;;;;;;13.45;6.47;;;;;;;;;;5046784;28;20538;-77
2022/04/25 06:20:30;;;;;;;13.73;6.40;;;;;;;;;;5047237;28;20087;-76
2022/04/25 06:22:56;;;;;;;20.35;6.40;;;;;;;;;;5047074;28;20720;-77
2022/04/25 06:25:24;;;;;;;11.85;6.35;;;;;;;;;;5047872;28;20044;-77
2022/04/25 06:27:50;;;;;;;16.23;6.70;;;;;;;;;;5010324;28;20067;-78
2022/04/25 06:30:16;;;;;;;14.20;6.75;;;;;;;;;;5047625;28;20409;-77
2022/04/25 06:32:42;;;;;;;16.05;6.78;;;;;;;;;;5048116;28;20884;-78
2022/04/25 06:35:09;;;;;;;13.18;7.07;;;;;;;;;;5045424;28;20025;-76
2022/04/25 06:37:36;;;;;;;10.45;5.95;;;;;;;;;;5047498;28;20484;-78
2022/04/25 06:40:08;;;;;;;8.90;4.78;;;;;;;;;;5046110;28;20047;-78
2022/04/25 06:42:35;;;;;;;11.93;6.00;;;;;;;;;;5045485;28;20103;-78
2022/04/25 06:45:01;;;;;;;19.25;4.93;;;;;;;;;;5037342;28;20560;-78
2022/04/25 06:47:27;;;;;;;10.57;4.57;;;;;;;;;;5046001;28;20049;-78
2022/04/25 06:49:54;;;;;;;10.32;4.88;;;;;;;;;;5029533;28;20053;-78
2022/04/25 06:52:23;;;;;;;10.02;4.60;;;;;;;;;;5046614;28;20119;-78
2022/04/25 06:54:49;;;;;;;13.80;4.60;;;;;;;;;;5030348;28;20058;-79
2022/04/25 06:57:15;;;;;;;8.88;4.70;;;;;;;;;;5045769;28;20049;-78
2022/04/25 06:59:43;;;;;;;8.13;4.38;;;;;;;;;;5029953;28;20044;-76
2022/04/25 07:02:10;;;;;;;12.75;4.43;;;;;;;;;;5040049;28;21794;-76
2022/04/25 07:04:36;;;;;;;12.48;4.60;;;;;;;;;;5044289;28;20416;-77
2022/04/25 07:07:03;;;;;;;12.23;6.00;;;;;;;;;;5043567;28;20442;-78
2022/04/25 07:09:29;;;;;;;11.35;4.90;;;;;;;;;;5042547;28;20215;-76
2022/04/25 07:11:55;;;;;;;9.00;4.80;;;;;;;;;;5039340;28;20417;-77
2022/04/25 07:14:21;;;;;;;8.68;4.63;;;;;;;;;;5041451;28;20037;-78
2022/04/25 07:16:48;;;;;;;8.55;4.50;;;;;;;;;;5007825;28;20131;-76
2022/04/25 07:19:14;;;;;;;11.40;4.63;;;;;;;;;;5022270;28;20044;-78
2022/04/25 07:29:58;;;;;;;24.52;12.57;;;;;;;;;;5042691;28;20131;-77
2022/04/25 07:32:25;;;;;;;9.32;4.50;;;;;;;;;;5041979;28;20094;-76
2022/04/25 07:34:51;;;;;;;11.35;4.95;;;;;;;;;;5025445;28;20033;-75
2022/04/25 07:37:18;;;;;;;8.35;4.82;;;;;;;;;;5042312;28;20048;-84
2022/04/25 07:39:45;;;;;;;8.10;4.50;;;;;;;;;;5042804;28;20072;-81
2022/04/25 07:42:12;;;;;;;12.63;4.60;;;;;;;;;;5044039;28;20227;-83
2022/04/25 07:44:38;;;;;;;10.32;4.80;;;;;;;;;;5042309;28;20050;-83
2022/04/25 07:47:05;;;;;;;10.18;4.97;;;;;;;;;;5045288;28;20037;-82
2022/04/25 07:49:33;;;;;;;11.15;4.97;;;;;;;;;;5046868;28;20135;-82
2022/04/25 07:52:00;;;;;;;9.77;4.60;;;;;;;;;;5054413;28;20053;-81
2022/04/25 07:54:26;;;;;;;9.45;4.65;;;;;;;;;;5055083;28;20049;-83
2022/04/25 07:56:52;;;;;;;10.60;5.47;;;;;;;;;;5052326;28;20032;-83
2022/04/25 07:59:19;;;;;;;12.30;4.55;;;;;;;;;;5047348;28;20045;-83
2022/04/25 08:01:45;;;;;;;7.97;4.45;;;;;;;;;;5046152;28;20037;-80
2022/04/25 08:04:11;;;;;;;7.35;3.88;;;;;;;;;;5044669;28;20428;-83
2022/04/25 08:06:38;;;;;;;10.05;4.47;;;;;;;;;;5028536;28;20463;-81
2022/04/25 08:09:05;;;;;;;9.23;4.25;;;;;;;;;;5046860;28;20401;-84
2022/04/25 08:11:38;;;;;;;7.68;4.13;;;;;;;;;;5027420;28;20083;-82
2022/04/25 08:19:44;;;;;;;9.48;3.85;;;;;;;;;;5046394;28;20619;-83
2022/04/25 08:22:10;;;;;;;9.15;4.13;;;;;;;;;;5046449;28;20512;-83
2022/04/25 08:24:36;;;;;;;7.70;4.22;;;;;;;;;;5027613;28;20036;-82
2022/04/25 08:27:05;;;;;;;7.75;3.67;;;;;;;;;;5044452;28;20109;-84
2022/04/25 08:29:32;;;;;;;7.68;3.90;;;;;;;;;;5044905;28;20977;-83
2022/04/25 08:31:59;;;;;;;12.98;4.07;;;;;;;;;;5046429;28;20044;-81
2022/04/25 08:34:31;;;;;;;7.78;3.78;;;;;;;;;;5043365;28;20106;-81
2022/04/25 08:36:57;;;;;;;6.25;3.83;;;;;;;;;;5045379;28;20057;-85
2022/04/25 08:39:32;;;;;;;33.85;7.00;;;;;;;;;;5043262;28;20039;-83
2022/04/25 08:41:59;;;;;;;45.38;5.75;;;;;;;;;;5046107;28;20174;-81
2022/04/25 08:44:25;;;;;;;7.88;4.03;;;;;;;;;;4992876;28;20171;-84
2022/04/25 08:46:59;;;;;;;14.68;5.18;;;;;;;;;;5045731;28;20124;-85
2022/04/25 08:49:26;;;;;;;8.60;3.83;;;;;;;;;;5042553;28;20048;-84
2022/04/25 08:51:58;;;;;;;8.85;3.92;;;;;;;;;;5027474;28;20124;-83
2022/04/25 08:54:32;;;;;;;15.45;4.72;;;;;;;;;;5046060;28;20048;-82
2022/04/25 08:57:01;;;;;;;11.75;4.40;;;;;;;;;;5046615;28;20146;-82
2022/04/25 08:59:28;;;;;;;12.13;4.90;;;;;;;;;;5044780;28;20041;-83
2022/04/25 09:01:54;;;;;;;10.40;4.50;;;;;;;;;;5025976;28;20037;-84
2022/04/25 09:04:20;;;;;;;12.27;3.80;;;;;;;;;;5045225;28;20049;-83
2022/04/25 09:06:47;;;;;;;5.95;3.30;;;;;;;;;;5024222;28;20860;-82
2022/04/25 09:09:13;;;;;;;10.20;4.30;;;;;;;;;;5045189;28;20060;-83
2022/04/25 09:14:24;;;;;;;12.48;4.38;;;;;;;;;;5043572;28;20055;-84
2022/04/25 09:16:51;;;;;;;12.65;4.45;;;;;;;;;;5026373;28;20033;-83
2022/04/25 09:19:17;;;;;;;6.38;3.38;;;;;;;;;;5024603;28;20049;-83
2022/04/25 09:21:45;;;;;;;6.13;3.70;;;;;;;;;;4990617;28;20045;-84
2022/04/25 09:24:21;;;;;;;9.88;3.97;;;;;;;;;;5034941;28;20413;-82
2022/04/25 09:26:52;;;;;;;5.97;3.58;;;;;;;;;;5026989;28;20058;-85
2022/04/25 09:29:25;;;;;;;7.32;4.50;;;;;;;;;;5042622;28;20048;-83
2022/04/25 09:31:51;;;;;;;8.43;4.22;;;;;;;;;;5046033;28;20107;-82
2022/04/25 09:34:59;;;;;;;7.03;3.35;;;;;;;;;;5008270;28;20049;-82
2022/04/25 09:37:07;;;;;;;9.48;4.20;;;;;;;;;;5026285;28;21207;-83
2022/04/25 09:39:33;;;;;;;13.63;4.38;;;;;;;;;;5044738;28;20040;-83
2022/04/25 09:42:02;;;;;;;8.40;3.80;;;;;;;;;;5009043;28;20231;-83
2022/04/25 09:44:30;;;;;;;9.30;4.20;;;;;;;;;;5043507;28;20381;-81
2022/04/25 09:46:57;;;;;;;8.52;4.07;;;;;;;;;;5043141;28;20049;-83
2022/04/25 09:49:23;;;;;;;9.52;3.63;;;;;;;;;;5044863;28;20553;-83
2022/04/25 09:52:03;;;;;;;9.93;3.60;;;;;;;;;;5043558;28;20629;-87
2022/04/25 09:54:34;;;;;;;9.93;4.15;;;;;;;;;;5045686;28;20049;-86
2022/04/25 09:57:03;;;;;;;5.80;3.58;;;;;;;;;;5044394;28;20067;-88
2022/04/25 09:59:42;;;;;;;6.20;3.83;;;;;;;;;;5043189;28;20080;-86
2022/04/25 10:02:09;;;;;;;14.27;4.68;;;;;;;;;;5045909;28;20060;-86
2022/04/25 10:04:38;;;;;;;7.45;4.05;;;;;;;;;;5043606;28;20053;-86
2022/04/25 10:07:06;;;;;;;6.90;4.03;;;;;;;;;;5010714;28;20045;-81
2022/04/25 10:09:33;;;;;;;8.82;3.83;;;;;;;;;;5026111;28;20056;-88
2022/04/25 10:12:00;;;;;;;8.10;3.78;;;;;;;;;;5045412;28;20045;-88
2022/04/25 10:14:27;;;;;;;28.95;4.65;;;;;;;;;;5044358;28;20106;-82
2022/04/25 10:16:56;;;;;;;20.02;4.38;;;;;;;;;;5043536;28;20520;-87
2022/04/25 10:19:32;;;;;;;19.80;4.72;;;;;;;;;;5026071;28;20045;-85
2022/04/25 10:21:59;;;;;;;4.43;2.95;;;;;;;;;;5048666;28;20091;-85
2022/04/25 10:24:26;;;;;;;7.40;3.95;;;;;;;;;;5056689;28;20124;-84
2022/04/25 10:26:53;;;;;;;8.32;3.42;;;;;;;;;;5064734;28;20047;-85
2022/04/25 10:29:25;;;;;;;5.88;3.42;;;;;;;;;;5053070;28;20060;-86
2022/04/25 10:31:56;;;;;;;7.60;3.80;;;;;;;;;;5013528;28;20500;-85
2022/04/25 10:34:44;;;;;;;7.68;3.50;;;;;;;;;;5047959;28;20051;-81
2022/04/25 10:37:28;;;;;;;6.10;3.38;;;;;;;;;;5031594;28;20057;-87
2022/04/25 10:39:54;;;;;;;;;;;;;;;;;;5047238;28;20059;-85
2022/04/25 10:45:06;;;;;;;6.20;3.15;;;;;;;;;;5044547;28;20056;-86
2022/04/25 10:47:32;;;;;;;5.20;2.97;;;;;;;;;;5041477;28;20566;-86
2022/04/25 10:49:58;;;;;;;5.82;2.70;;;;;;;;;;5047517;28;20033;-85
2022/04/25 10:52:33;;;;;;;6.32;3.42;;;;;;;;;;5045942;28;20584;-84
2022/04/25 10:55:13;;;;;;;7.28;3.20;;;;;;;;;;5047198;28;20048;-84
2022/04/25 10:57:58;;;;;;;8.07;3.28;;;;;;;;;;5046248;28;20130;-84
2022/04/25 11:00:37;;;;;;;6.28;2.85;;;;;;;;;;5029658;28;20056;-86
2022/04/25 11:03:04;;;;;;;3.80;2.88;;;;;;;;;;5049007;28;20052;-83
2022/04/25 11:05:35;;;;;;;6.47;2.70;;;;;;;;;;5045395;28;20052;-80
2022/04/25 11:08:19;;;;;;;7.05;3.35;;;;;;;;;;5030194;28;20493;-86
2022/04/25 11:10:48;;;;;;;10.60;3.05;;;;;;;;;;5045010;28;20038;-84
2022/04/25 11:13:17;;;;;;;4.40;3.05;;;;;;;;;;5046140;28;20106;-80
2022/04/25 11:15:44;;;;;;;12.82;3.17;;;;;;;;;;5047008;28;20049;-82
2022/04/25 11:18:35;;;;;;;44.05;5.32;;;;;;;;;;5027749;28;20082;-82
2022/04/25 11:21:18;;;;;;;70.22;7.95;;;;;;;;;;5047933;28;20044;-82
2022/04/25 11:23:44;;;;;;;38.30;5.50;;;;;;;;;;5008728;28;20079;-82
2022/04/25 11:26:33;;;;;;;19.50;4.38;;;;;;;;;;5046039;28;20045;-82
2022/04/25 11:29:09;;;;;;;88.68;8.23;;;;;;;;;;5046412;28;20086;-82
2022/04/25 11:31:36;;;;;;;151.90;11.02;;;;;;;;;;5046217;28;20090;-80
2022/04/25 11:34:02;;;;;;;68.72;8.30;;;;;;;;;;5047119;28;20053;-83
2022/04/25 11:36:30;;;;;;;29.10;4.90;;;;;;;;;;5027870;28;20037;-82
2022/04/25 11:41:41;;;;;;;11.05;4.40;;;;;;;;;;5046586;28;20044;-82
2022/04/25 11:44:08;;;;;;;10.63;3.92;;;;;;;;;;5046730;28;20036;-81
2022/04/25 11:46:35;;;;;;;20.65;4.60;;;;;;;;;;5046004;28;20093;-81
2022/04/25 11:49:02;;;;;;;34.88;5.72;;;;;;;;;;5045002;28;20575;-83
2022/04/25 11:51:29;;;;;;;21.65;4.63;;;;;;;;;;5046428;28;20053;-83
2022/04/25 11:53:59;;;;;;;15.60;4.45;;;;;;;;;;5044382;28;20072;-84
2022/04/25 11:56:29;;;;;;;8.13;4.05;;;;;;;;;;5019741;28;20080;-82
2022/04/25 11:58:56;;;;;;;9.00;4.90;;;;;;;;;;5027815;28;20098;-80
2022/04/25 12:01:36;;;;;;;10.00;4.30;;;;;;;;;;5029281;28;20033;-80
2022/04/25 12:04:18;;;;;;;8.35;4.18;;;;;;;;;;5047351;28;20105;-84
2022/04/25 12:06:50;;;;;;;11.77;4.15;;;;;;;;;;5044520;28;20136;-82
2022/04/25 12:17:38;;;;;;;11.05;3.83;;;;;;;;;;5043994;28;20122;-84
2022/04/25 12:20:08;;;;;;;8.93;3.92;;;;;;;;;;5040157;28;20041;-82
2022/04/25 12:22:35;;;;;;;10.32;4.32;;;;;;;;;;5043887;28;21109;-84
2022/04/25 12:25:13;;;;;;;8.93;3.83;;;;;;;;;;5040801;28;21156;-80
2022/04/25 12:27:41;;;;;;;14.52;4.15;;;;;;;;;;5041218;28;20064;-81
2022/04/25 12:30:08;;;;;;;4.97;2.67;;;;;;;;;;5041351;28;20044;-82
2022/04/25 12:32:34;;;;;;;7.28;4.00;;;;;;;;;;5023872;28;20049;-81
2022/04/25 12:35:00;;;;;;;10.48;5.00;;;;;;;;;;5041337;28;20187;-83
2022/04/25 12:37:26;;;;;;;8.00;4.22;;;;;;;;;;5041434;28;20041;-82
2022/04/25 12:40:03;;;;;;;6.30;4.03;;;;;;;;;;5041199;28;20114;-82
2022/04/25 12:42:50;;;;;;;10.32;4.45;;;;;;;;;;5006374;28;20131;-83
2022/04/25 12:45:20;;;;;;;7.65;4.40;;;;;;;;;;5005334;28;20115;-83
2022/04/25 12:47:46;;;;;;;7.03;4.15;;;;;;;;;;5039835;28;20144;-82
2022/04/25 12:50:12;;;;;;;8.90;4.60;;;;;;;;;;5040163;28;20178;-83
2022/04/25 12:52:49;;;;;;;9.48;4.40;;;;;;;;;;5025565;28;20112;-85
2022/04/25 12:55:15;;;;;;;8.27;4.72;;;;;;;;;;5047574;28;20060;-84
2022/04/25 12:57:50;;;;;;;6.65;4.70;;;;;;;;;;5032082;28;20126;-81
2022/04/25 13:00:16;;;;;;;7.10;5.03;;;;;;;;;;5037814;28;20049;-82
2022/04/25 13:02:42;;;;;;;7.22;4.43;;;;;;;;;;5032461;28;20049;-79
2022/04/25 13:05:17;;;;;;;8.57;4.90;;;;;;;;;;4996475;28;20112;-83
2022/04/25 13:07:48;;;;;;;10.77;4.97;;;;;;;;;;5010438;28;20481;-83
2022/04/25 13:10:18;;;;;;;7.32;4.65;;;;;;;;;;5043025;28;20056;-81
2022/04/25 13:12:45;;;;;;;6.82;4.43;;;;;;;;;;5040906;28;20116;-80
2022/04/25 13:15:13;;;;;;;8.98;4.32;;;;;;;;;;5041912;28;20041;-80
2022/04/25 13:17:40;;;;;;;12.82;4.80;;;;;;;;;;5042097;28;20060;-84
2022/04/25 13:20:11;;;;;;;12.50;4.60;;;;;;;;;;5024172;28;20045;-83
2022/04/25 13:22:37;;;;;;;7.97;4.60;;;;;;;;;;5041358;28;20120;-84
2022/04/25 13:25:05;;;;;;;9.95;4.32;;;;;;;;;;5040317;28;20033;-80
2022/04/25 13:27:31;;;;;;;10.85;5.03;;;;;;;;;;5040197;28;20045;-82
2022/04/25 13:29:57;;;;;;;8.07;4.30;;;;;;;;;;5040634;28;20222;-81
2022/04/25 13:32:23;;;;;;;13.75;4.55;;;;;;;;;;5040204;28;20577;-84
2022/04/25 13:34:49;;;;;;;9.52;5.20;;;;;;;;;;5039006;28;20405;-80
2022/04/25 13:37:15;;;;;;;10.30;3.63;;;;;;;;;;5041690;28;20068;-84
2022/04/25 13:39:42;;;;;;;9.18;4.70;;;;;;;;;;5040700;28;20110;-80
2022/04/25 13:42:08;;;;;;;7.65;4.75;;;;;;;;;;5039431;28;20056;-82
2022/04/25 13:44:34;;;;;;;9.30;4.65;;;;;;;;;;5042180;28;20404;-79
2022/04/25 13:47:01;;;;;;;8.05;4.22;;;;;;;;;;4989354;28;20037;-80
2022/04/25 13:49:27;;;;;;;12.70;5.40;;;;;;;;;;5040375;28;20049;-84
2022/04/25 13:51:54;;;;;;;18.67;4.10;;;;;;;;;;5044588;28;20382;-83
2022/04/25 13:54:20;;;;;;;6.40;4.50;;;;;;;;;;5041858;28;20076;-81
2022/04/25 13:56:46;;;;;;;12.10;4.18;;;;;;;;;;5043475;28;20502;-81
2022/04/25 13:59:13;;;;;;;10.25;3.80;;;;;;;;;;5044653;28;20171;-82
2022/04/25 14:01:39;;;;;;;5.20;2.95;;;;;;;;;;5024661;28;20128;-82
2022/04/25 14:04:05;;;;;;;7.68;4.45;;;;;;;;;;5050665;28;20057;-79
2022/04/25 14:06:31;;;;;;;6.90;3.53;;;;;;;;;;5044235;28;20060;-80
2022/04/25 14:08:57;;;;;;;8.52;4.15;;;;;;;;;;5043485;28;20099;-79
2022/04/25 14:11:24;;;;;;;6.07;2.78;;;;;;;;;;5041541;28;20402;-82
2022/04/25 14:13:52;;;;;;;7.38;3.65;;;;;;;;;;5023678;28;20178;-82
2022/04/25 14:16:19;;;;;;;6.82;2.80;;;;;;;;;;5023495;28;20447;-82
2022/04/25 14:18:45;;;;;;;20.83;3.42;;;;;;;;;;5041880;28;20041;-83
2022/04/25 14:21:11;;;;;;;7.35;3.60;;;;;;;;;;5039472;28;20156;-83
2022/04/25 14:23:37;;;;;;;8.15;3.97;;;;;;;;;;5042371;28;20149;-83
2022/04/25 14:26:05;;;;;;;5.57;3.15;;;;;;;;;;5051040;28;20040;-82
2022/04/25 14:28:33;;;;;;;6.13;2.55;;;;;;;;;;5026141;28;20460;-81
2022/04/25 14:31:00;;;;;;;5.88;2.70;;;;;;;;;;5045832;28;20049;-82
2022/04/25 14:33:26;;;;;;;9.05;2.80;;;;;;;;;;5010135;28;20617;-81
2022/04/25 14:35:54;;;;;;;4.10;2.78;;;;;;;;;;5049444;28;20037;-83
2022/04/25 14:38:23;;;;;;;7.70;2.42;;;;;;;;;;5029811;28;20368;-81
2022/04/25 14:40:50;;;;;;;8.93;2.95;;;;;;;;;;5048790;28;20041;-82
2022/04/25 14:43:16;;;;;;;13.15;3.40;;;;;;;;;;5045878;28;20049;-86
2022/04/25 14:45:43;;;;;;;10.50;3.20;;;;;;;;;;5027338;28;20071;-86
2022/04/25 14:48:09;;;;;;;11.73;3.55;;;;;;;;;;5026377;28;20132;-82
2022/04/25 14:56:06;;;;;;;5.78;2.67;;;;;;;;;;5043456;28;20114;-84
2022/04/25 14:58:32;;;;;;;8.75;2.80;;;;;;;;;;5044703;28;20075;-84
2022/04/25 15:01:01;;;;;;;10.10;3.22;;;;;;;;;;5046075;28;20041;-85
2022/04/25 15:03:29;;;;;;;4.75;2.58;;;;;;;;;;5042052;28;20062;-81
2022/04/25 15:05:56;;;;;;;6.78;2.03;;;;;;;;;;5041549;28;20045;-83
2022/04/25 15:08:22;;;;;;;8.07;3.38;;;;;;;;;;5024598;28;20130;-82
2022/04/25 15:10:48;;;;;;;8.70;2.75;;;;;;;;;;5008920;28;20049;-83
2022/04/25 15:13:15;;;;;;;8.80;2.80;;;;;;;;;;5042688;28;20045;-82
2022/04/25 15:15:41;;;;;;;5.78;2.10;;;;;;;;;;5009222;28;20107;-85
2022/04/25 15:18:08;;;;;;;12.02;2.92;;;;;;;;;;5042105;28;20029;-80
2022/04/25 15:20:35;;;;;;;5.90;2.60;;;;;;;;;;5043348;28;20435;-84
2022/04/25 15:23:03;;;;;;;10.23;2.53;;;;;;;;;;5042571;28;20075;-83